Costa Magica — IBQQ — position and weather

sailwx.info

Track history (hours):
 
Tides and Currents Weather Stations Pressure Air Temp Water Temp Dewpoint Dewpoint Depression Visibility Wind Speed Wind Dir Waves Ship Positions

Costa Magica

Last reported at 2019-Oct-15 20:38 UTC. Time now 2019-Oct-15 22:19 UTC.
Position N 41°38' E 003°04'.

Type: Ship. MMSI: 247113300.

Date/timePositionNaut miles runAvg speedWind from/ knotsBaromVisibWave heightAir tempDewpointWater temp
2019-Oct-15 20:38N 41°38' E 003°04'415.9
2019-Oct-15 20:22N 41°35' E 002°59'616.0
2019-Oct-15 20:00N 41°32' E 002°52'815.9
2019-Oct-15 19:30N 41°28' E 002°43'816.3
2019-Oct-15 19:00N 41°23' E 002°35'816.3
2019-Oct-15 18:30N 41°19' E 002°25'815.8
2019-Oct-15 18:00N 41°15' E 002°16'510.6
2019-Oct-15 17:30N 41°18' E 002°10'3 6.2
2019-Oct-15 16:58N 41°21' E 002°10'0 0.0
2019-Oct-15 16:28N 41°21' E 002°10'0 0.0
2019-Oct-15 15:58N 41°21' E 002°10'0 0.0
2019-Oct-15 15:28N 41°21' E 002°10'0 0.0
2019-Oct-15 14:55N 41°21' E 002°10'0 0.0
2019-Oct-15 14:28N 41°21' E 002°10'0 0.0
2019-Oct-15 13:52N 41°21' E 002°10'0 0.0
2019-Oct-15 13:28N 41°21' E 002°10'0 0.0
2019-Oct-15 12:58N 41°21' E 002°10'0 0.0
2019-Oct-15 12:28N 41°21' E 002°10'0 0.0
2019-Oct-15 11:58N 41°21' E 002°10'0 0.0
2019-Oct-15 11:28N 41°21' E 002°10'0 0.0
2019-Oct-15 10:58N 41°21' E 002°10'1 1.6
2019-Oct-15 10:31N 41°21' E 002°10'4 7.6
2019-Oct-15 10:01N 41°17' E 002°11'713.1
2019-Oct-15 09:31N 41°17' E 002°20'917.3
2019-Oct-15 09:00N 41°19' E 002°31'917.0
2019-Oct-15 08:30N 41°21' E 002°42'917.2
2019-Oct-15 08:00N 41°24' E 002°53'917.5
2019-Oct-15 07:30N 41°27' E 003°04'917.3
2019-Oct-15 06:59N 41°31' E 003°15'1618.7
2019-Oct-15 06:06N 41°38' E 003°34'12518.0
2019-Oct-14 23:09N 42°31' E 006°07'318.9
2019-Oct-14 23:00N 42°33' E 006°11'918.9
2019-Oct-14 22:31N 42°37' E 006°22'1019.1
2019-Oct-14 22:01N 42°42' E 006°33'1019.2
2019-Oct-14 21:30N 42°48' E 006°43'1019.3
2019-Oct-14 21:00N 42°54' E 006°53'1019.2
2019-Oct-14 20:31N 43°00' E 007°03'1019.1
2019-Oct-14 20:00N 43°07' E 007°13'919.0
2019-Oct-14 19:31N 43°13' E 007°23'918.7
2019-Oct-14 19:01N 43°19' E 007°33'918.5
2019-Oct-14 18:31N 43°25' E 007°42'918.6
2019-Oct-14 18:01N 43°31' E 007°52'918.6
2019-Oct-14 17:31N 43°37' E 008°02'1019.2
2019-Oct-14 17:00N 43°45' E 008°09'1019.5
2019-Oct-14 16:30N 43°54' E 008°16'1019.3
2019-Oct-14 16:01N 44°02' E 008°23'1019.0
2019-Oct-14 15:31N 44°10' E 008°30'816.3
2019-Oct-14 15:00N 44°18' E 008°31'1 2.9
2019-Oct-14 14:30N 44°19' E 008°30'0 0.0
2019-Oct-14 14:00N 44°19' E 008°30'0 0.0
2019-Oct-14 13:30N 44°19' E 008°30'0 0.0
2019-Oct-14 12:57N 44°19' E 008°30'0 0.0
2019-Oct-14 12:27N 44°19' E 008°30'0 0.0
2019-Oct-14 12:00N 44°19' E 008°30'0 0.0
2019-Oct-14 11:30N 44°19' E 008°30'0 0.0
2019-Oct-14 11:00N 44°19' E 008°30'0 0.0
2019-Oct-14 10:27N 44°19' E 008°30'0 0.0
2019-Oct-14 10:00N 44°19' E 008°30'0 0.0
2019-Oct-14 09:27N 44°19' E 008°30'0 0.0
2019-Oct-14 09:00N 44°19' E 008°30'0 0.0
2019-Oct-14 08:27N 44°19' E 008°30'0 0.0
2019-Oct-14 08:00N 44°19' E 008°30'0 0.0
2019-Oct-14 07:30N 44°19' E 008°30'0 0.0
2019-Oct-14 07:00N 44°19' E 008°30'0 0.0
2019-Oct-14 06:30N 44°19' E 008°30'0 0.2
2019-Oct-14 06:00N 44°19' E 008°30'3 5.5
2019-Oct-14 05:31N 44°17' E 008°33'815.2
2019-Oct-14 05:00N 44°10' E 008°32'917.8
2019-Oct-14 04:31N 44°02' E 008°24'917.0
2019-Oct-14 04:01N 43°55' E 008°18'714.9
2019-Oct-14 03:31N 43°49' E 008°12'714.8
2019-Oct-14 03:00N 43°43' E 008°06'714.9
2019-Oct-14 02:30N 43°37' E 007°60'815.1
2019-Oct-14 02:00N 43°33' E 007°51'815.3
2019-Oct-14 01:31N 43°29' E 007°42'815.4
2019-Oct-14 01:00N 43°25' E 007°33'815.5
2019-Oct-14 00:31N 43°21' E 007°24'815.2
2019-Oct-14 00:00N 43°17' E 007°15'715.0
2019-Oct-13 23:30N 43°13' E 007°07'714.8
2019-Oct-13 23:00N 43°09' E 006°58'714.5
2019-Oct-13 22:30N 43°05' E 006°49'814.1
2019-Oct-13 21:57N 43°01' E 006°40'612.1
2019-Oct-13 21:28N 42°58' E 006°33'84 4.4
2019-Oct-13 02:28N 42°49' E 004°39'9915.2
2019-Oct-12 20:00N 41°39' E 003°06'1115.6
2019-Oct-12 19:16N 41°33' E 002°53'415.7
2019-Oct-12 19:00N 41°31' E 002°48'816.1
2019-Oct-12 18:30N 41°26' E 002°39'816.6
2019-Oct-12 18:00N 41°22' E 002°29'816.4
2019-Oct-12 17:30N 41°18' E 002°20'714.4
2019-Oct-12 17:00N 41°14' E 002°12'611.5
2019-Oct-12 16:31N 41°20' E 002°10'1 2.1
2019-Oct-12 15:59N 41°21' E 002°10'0 0.0
2019-Oct-12 15:28N 41°21' E 002°10'0 0.0
2019-Oct-12 14:50N 41°21' E 002°10'0 0.0
2019-Oct-12 14:29N 41°21' E 002°10'0 0.0
2019-Oct-12 13:57N 41°21' E 002°10'0 0.0
2019-Oct-12 13:21N 41°21' E 002°10'0 0.0
2019-Oct-12 13:00N 41°21' E 002°10'0 0.0
2019-Oct-12 12:24N 41°21' E 002°10'0 0.0
2019-Oct-12 12:00N 41°21' E 002°10'0 0.0
2019-Oct-12 11:30N 41°21' E 002°10'0 0.0
2019-Oct-12 11:00N 41°21' E 002°10'0 0.0
2019-Oct-12 10:30N 41°21' E 002°10'0 0.0
2019-Oct-12 10:00N 41°21' E 002°10'0 0.0
2019-Oct-12 09:30N 41°21' E 002°10'0 0.0
2019-Oct-12 09:00N 41°21' E 002°10'0 0.2
2019-Oct-12 08:44N 41°21' E 002°10'0 0.2
2019-Oct-12 08:30N 41°21' E 002°10'0 0.8
2019-Oct-12 08:27N 41°21' E 002°10'0 0.1
2019-Oct-12 08:00N 41°21' E 002°10'0 0.0
2019-Oct-12 07:30N 41°21' E 002°10'0 0.0
2019-Oct-12 07:00N 41°21' E 002°10'0 0.0
2019-Oct-12 06:30N 41°21' E 002°10'0 0.0
2019-Oct-12 06:00N 41°21' E 002°10'0 0.3
2019-Oct-12 05:30N 41°21' E 002°10'2 4.2
2019-Oct-12 05:00N 41°19' E 002°10'510.8
2019-Oct-12 04:30N 41°14' E 002°13'612.3
2019-Oct-12 04:00N 41°08' E 002°15'612.0
2019-Oct-12 03:30N 41°03' E 002°18'611.7
2019-Oct-12 03:00N 41°02' E 002°26'612.2
2019-Oct-12 02:30N 41°01' E 002°34'612.3
2019-Oct-12 02:00N 41°01' E 002°42'712.3
2019-Oct-12 01:24N 41°02' E 002°52'511.9
2019-Oct-12 01:00N 41°03' E 002°58'711.5
2019-Oct-12 00:25N 41°04' E 003°07'511.5
2019-Oct-11 23:58N 41°05' E 003°14'106 9.2
2019-Oct-11 12:23N 42°43' E 004°08'410.6
2019-Oct-11 12:00N 42°46' E 004°11'711.4
2019-Oct-11 11:25N 42°50' E 004°19'1210.8
2019-Oct-11 10:21N 42°53' E 004°34'8511.3
2019-Oct-11 02:50N 42°42' E 006°30'510.3
2019-Oct-11 02:22N 42°43' E 006°36'411.2
2019-Oct-11 01:59N 42°46' E 006°40'1011.3
2019-Oct-11 01:07N 42°53' E 006°50'211.5
2019-Oct-11 00:54N 42°55' E 006°52'511.6
2019-Oct-11 00:29N 42°58' E 006°57'611.6
2019-Oct-11 00:00N 43°02' E 007°03'611.5
2019-Oct-10 23:30N 43°05' E 007°09'611.5
2019-Oct-10 23:00N 43°09' E 007°14'611.6
2019-Oct-10 22:30N 43°13' E 007°20'611.9
2019-Oct-10 22:00N 43°17' E 007°26'612.0
2019-Oct-10 21:30N 43°21' E 007°32'612.1
2019-Oct-10 21:00N 43°25' E 007°39'612.5
2019-Oct-10 20:30N 43°30' E 007°45'612.7
2019-Oct-10 20:00N 43°34' E 007°51'612.9
2019-Oct-10 19:30N 43°38' E 007°58'612.5
2019-Oct-10 19:00N 43°43' E 008°03'612.4
2019-Oct-10 18:30N 43°48' E 008°09'612.6
2019-Oct-10 18:00N 43°53' E 008°15'612.3
2019-Oct-10 17:30N 43°58' E 008°19'612.1
2019-Oct-10 17:00N 44°03' E 008°24'612.3
2019-Oct-10 16:30N 44°08' E 008°28'612.1
2019-Oct-10 16:00N 44°13' E 008°33'611.1
2019-Oct-10 15:30N 44°19' E 008°31'1 2.0
2019-Oct-10 14:58N 44°19' E 008°29'0 0.0
2019-Oct-10 14:25N 44°19' E 008°29'0 0.0
2019-Oct-10 13:55N 44°19' E 008°29'0 0.0
2019-Oct-10 13:28N 44°19' E 008°29'0 0.0
2019-Oct-10 12:58N 44°19' E 008°29'0 0.0
2019-Oct-10 12:28N 44°19' E 008°29'0 0.0
2019-Oct-10 11:58N 44°19' E 008°29'0 0.0
2019-Oct-10 11:28N 44°19' E 008°29'0 0.0
2019-Oct-10 10:58N 44°19' E 008°29'0 0.0
2019-Oct-10 10:28N 44°19' E 008°29'0 0.0
2019-Oct-10 09:58N 44°19' E 008°29'0 0.0
2019-Oct-10 09:28N 44°19' E 008°29'0 0.0
2019-Oct-10 08:58N 44°19' E 008°29'0 0.0
2019-Oct-10 08:28N 44°19' E 008°29'0 0.0
2019-Oct-10 07:58N 44°19' E 008°29'0 0.0
2019-Oct-10 07:28N 44°19' E 008°29'0 0.0
2019-Oct-10 06:58N 44°19' E 008°29'0 0.4
2019-Oct-10 06:30N 44°19' E 008°29'2 4.7
2019-Oct-10 06:00N 44°18' E 008°32'611.7
2019-Oct-10 05:30N 44°12' E 008°34'713.1
2019-Oct-10 05:00N 44°06' E 008°30'713.3
2019-Oct-10 04:30N 44°00' E 008°25'713.5
2019-Oct-10 04:00N 43°55' E 008°20'713.3
2019-Oct-10 03:30N 43°51' E 008°13'713.3
2019-Oct-10 03:00N 43°45' E 008°08'713.1
2019-Oct-10 02:30N 43°40' E 008°02'612.8
2019-Oct-10 02:00N 43°36' E 007°56'612.9
2019-Oct-10 01:30N 43°32' E 007°49'612.8
2019-Oct-10 01:00N 43°28' E 007°41'713.3
2019-Oct-10 00:30N 43°25' E 007°33'713.6
2019-Oct-10 00:00N 43°21' E 007°25'713.3
2019-Oct-09 23:30N 43°18' E 007°18'713.3
2019-Oct-09 23:00N 43°14' E 007°10'713.1
2019-Oct-09 22:30N 43°11' E 007°02'713.2
2019-Oct-09 22:00N 43°07' E 006°55'713.5
2019-Oct-09 21:30N 43°04' E 006°47'713.8
2019-Oct-09 20:59N 43°00' E 006°38'86 4.8
2019-Oct-09 02:59N 42°50' E 004°41'1215.8
2019-Oct-09 02:13N 42°41' E 004°30'9015.5
2019-Oct-08 20:24N 41°38' E 003°04'616.2
2019-Oct-08 20:00N 41°34' E 002°57'816.3
2019-Oct-08 19:30N 41°30' E 002°47'816.5
2019-Oct-08 19:00N 41°26' E 002°38'816.7
2019-Oct-08 18:30N 41°22' E 002°28'816.4
2019-Oct-08 18:00N 41°18' E 002°19'612.5
2019-Oct-08 17:31N 41°17' E 002°11'4 7.8
2019-Oct-08 17:00N 41°21' E 002°10'0 0.0
2019-Oct-08 16:29N 41°21' E 002°10'0 0.0
2019-Oct-08 15:59N 41°21' E 002°10'0 0.0
2019-Oct-08 15:29N 41°21' E 002°10'0 0.0
2019-Oct-08 14:59N 41°21' E 002°10'0 0.0
2019-Oct-08 14:29N 41°21' E 002°10'0 0.0
2019-Oct-08 13:59N 41°21' E 002°10'0 0.0
2019-Oct-08 13:29N 41°21' E 002°10'0 0.0
2019-Oct-08 12:59N 41°21' E 002°10'0 0.0
2019-Oct-08 12:29N 41°21' E 002°10'0 0.0
2019-Oct-08 11:59N 41°21' E 002°10'0 0.0
2019-Oct-08 11:29N 41°21' E 002°10'0 0.0
2019-Oct-08 10:59N 41°21' E 002°10'0 0.6
2019-Oct-08 10:30N 41°21' E 002°10'3 5.4
2019-Oct-08 10:00N 41°18' E 002°11'510.3
2019-Oct-08 09:30N 41°16' E 002°17'612.6
2019-Oct-08 09:01N 41°17' E 002°25'816.5
2019-Oct-08 08:30N 41°18' E 002°36'918.1
2019-Oct-08 08:00N 41°22' E 002°47'918.3
2019-Oct-08 07:30N 41°26' E 002°58'918.3
2019-Oct-08 07:00N 41°30' E 003°09'918.4
2019-Oct-08 06:30N 41°34' E 003°20'16218.5
2019-Oct-07 21:44N 42°44' E 006°37'419.0
2019-Oct-07 21:30N 42°47' E 006°42'1019.1
2019-Oct-07 21:00N 42°53' E 006°52'919.2
2019-Oct-07 20:30N 42°60' E 007°01'1019.2
2019-Oct-07 20:00N 43°06' E 007°12'1019.1
2019-Oct-07 19:30N 43°12' E 007°21'1019.1
2019-Oct-07 19:00N 43°18' E 007°31'918.8
2019-Oct-07 18:30N 43°24' E 007°41'918.7
2019-Oct-07 18:00N 43°30' E 007°51'918.8
2019-Oct-07 17:30N 43°37' E 008°01'918.9
2019-Oct-07 17:00N 43°44' E 008°09'918.8
2019-Oct-07 16:30N 43°52' E 008°15'1019.4
2019-Oct-07 16:00N 44°01' E 008°21'1019.3
2019-Oct-07 15:30N 44°09' E 008°28'917.0
2019-Oct-07 15:00N 44°17' E 008°31'2 3.3
2019-Oct-07 14:28N 44°19' E 008°30'0 0.0
2019-Oct-07 13:58N 44°19' E 008°30'0 0.0
2019-Oct-07 13:28N 44°19' E 008°30'0 0.0
2019-Oct-07 12:55N 44°19' E 008°30'0 0.0
2019-Oct-07 12:28N 44°19' E 008°30'0 0.0
2019-Oct-07 11:58N 44°19' E 008°30'0 0.0
2019-Oct-07 11:28N 44°19' E 008°30'0 0.0
2019-Oct-07 10:58N 44°19' E 008°30'0 0.0
2019-Oct-07 10:28N 44°19' E 008°30'0 0.0
2019-Oct-07 10:00N 44°19' E 008°30'0 0.0
2019-Oct-07 09:30N 44°19' E 008°30'0 0.0
2019-Oct-07 09:00N 44°19' E 008°30'0 0.0
2019-Oct-07 08:30N 44°19' E 008°30'0 0.0
2019-Oct-07 08:01N 44°19' E 008°30'0 0.0
2019-Oct-07 07:31N 44°19' E 008°30'0 0.0
2019-Oct-07 07:01N 44°19' E 008°30'0 0.0
2019-Oct-07 06:30N 44°19' E 008°30'1 1.7
2019-Oct-07 06:01N 44°19' E 008°30'4 7.2
2019-Oct-07 05:31N 44°16' E 008°33'612.7
2019-Oct-07 05:00N 44°10' E 008°32'611.6
2019-Oct-07 04:31N 44°05' E 008°27'510.9
2019-Oct-07 04:01N 44°01' E 008°23'510.7
2019-Oct-07 03:30N 43°56' E 008°19'611.7
2019-Oct-07 03:00N 43°51' E 008°14'1211.8
2019-Oct-07 02:00N 43°42' E 008°04'611.5
2019-Oct-07 01:31N 43°37' E 007°59'612.0
2019-Oct-07 01:01N 43°34' E 007°53'612.1
2019-Oct-07 00:30N 43°30' E 007°46'611.8
2019-Oct-07 00:01N 43°27' E 007°39'611.7
2019-Oct-06 23:30N 43°24' E 007°32'611.8
2019-Oct-06 23:01N 43°21' E 007°25'713.0
2019-Oct-06 22:30N 43°18' E 007°18'713.5
2019-Oct-06 22:00N 43°14' E 007°10'815.9
2019-Oct-06 21:31N 43°10' E 007°00'815.7
2019-Oct-06 21:00N 43°06' E 006°51'815.5
2019-Oct-06 20:31N 43°02' E 006°42'815.2
2019-Oct-06 20:00N 42°58' E 006°33'  
Track history (hours):
 
Tides and Currents Weather Stations Pressure Air Temp Water Temp Dewpoint Dewpoint Depression Visibility Wind Speed Wind Dir Waves Ship Positions

Costa Magica

Last reported at 2019-Oct-15 20:38 UTC. Time now 2019-Oct-15 22:19 UTC.
Position N 41°38' E 003°04'.

Type: Ship. MMSI: 247113300.

Date/timePositionNaut miles runAvg speedWind from/ knotsBaromVisibWave heightAir tempDewpointWater temp
2019-Oct-15 20:38N 41°38' E 003°04'415.9
2019-Oct-15 20:22N 41°35' E 002°59'616.0
2019-Oct-15 20:00N 41°32' E 002°52'815.9
2019-Oct-15 19:30N 41°28' E 002°43'816.3
2019-Oct-15 19:00N 41°23' E 002°35'816.3
2019-Oct-15 18:30N 41°19' E 002°25'815.8
2019-Oct-15 18:00N 41°15' E 002°16'510.6
2019-Oct-15 17:30N 41°18' E 002°10'3 6.2
2019-Oct-15 16:58N 41°21' E 002°10'0 0.0
2019-Oct-15 16:28N 41°21' E 002°10'0 0.0
2019-Oct-15 15:58N 41°21' E 002°10'0 0.0
2019-Oct-15 15:28N 41°21' E 002°10'0 0.0
2019-Oct-15 14:55N 41°21' E 002°10'0 0.0
2019-Oct-15 14:28N 41°21' E 002°10'0 0.0
2019-Oct-15 13:52N 41°21' E 002°10'0 0.0
2019-Oct-15 13:28N 41°21' E 002°10'0 0.0
2019-Oct-15 12:58N 41°21' E 002°10'0 0.0
2019-Oct-15 12:28N 41°21' E 002°10'0 0.0
2019-Oct-15 11:58N 41°21' E 002°10'0 0.0
2019-Oct-15 11:28N 41°21' E 002°10'0 0.0
2019-Oct-15 10:58N 41°21' E 002°10'1 1.6
2019-Oct-15 10:31N 41°21' E 002°10'4 7.6
2019-Oct-15 10:01N 41°17' E 002°11'713.1
2019-Oct-15 09:31N 41°17' E 002°20'917.3
2019-Oct-15 09:00N 41°19' E 002°31'917.0
2019-Oct-15 08:30N 41°21' E 002°42'917.2
2019-Oct-15 08:00N 41°24' E 002°53'917.5
2019-Oct-15 07:30N 41°27' E 003°04'917.3
2019-Oct-15 06:59N 41°31' E 003°15'1618.7
2019-Oct-15 06:06N 41°38' E 003°34'12518.0
2019-Oct-14 23:09N 42°31' E 006°07'318.9
2019-Oct-14 23:00N 42°33' E 006°11'918.9
2019-Oct-14 22:31N 42°37' E 006°22'1019.1
2019-Oct-14 22:01N 42°42' E 006°33'1019.2
2019-Oct-14 21:30N 42°48' E 006°43'1019.3
2019-Oct-14 21:00N 42°54' E 006°53'1019.2
2019-Oct-14 20:31N 43°00' E 007°03'1019.1
2019-Oct-14 20:00N 43°07' E 007°13'919.0
2019-Oct-14 19:31N 43°13' E 007°23'918.7
2019-Oct-14 19:01N 43°19' E 007°33'918.5
2019-Oct-14 18:31N 43°25' E 007°42'918.6
2019-Oct-14 18:01N 43°31' E 007°52'918.6
2019-Oct-14 17:31N 43°37' E 008°02'1019.2
2019-Oct-14 17:00N 43°45' E 008°09'1019.5
2019-Oct-14 16:30N 43°54' E 008°16'1019.3
2019-Oct-14 16:01N 44°02' E 008°23'1019.0
2019-Oct-14 15:31N 44°10' E 008°30'816.3
2019-Oct-14 15:00N 44°18' E 008°31'1 2.9
2019-Oct-14 14:30N 44°19' E 008°30'0 0.0
2019-Oct-14 14:00N 44°19' E 008°30'0 0.0
2019-Oct-14 13:30N 44°19' E 008°30'0 0.0
2019-Oct-14 12:57N 44°19' E 008°30'0 0.0
2019-Oct-14 12:27N 44°19' E 008°30'0 0.0
2019-Oct-14 12:00N 44°19' E 008°30'0 0.0
2019-Oct-14 11:30N 44°19' E 008°30'0 0.0
2019-Oct-14 11:00N 44°19' E 008°30'0 0.0
2019-Oct-14 10:27N 44°19' E 008°30'0 0.0
2019-Oct-14 10:00N 44°19' E 008°30'0 0.0
2019-Oct-14 09:27N 44°19' E 008°30'0 0.0
2019-Oct-14 09:00N 44°19' E 008°30'0 0.0
2019-Oct-14 08:27N 44°19' E 008°30'0 0.0
2019-Oct-14 08:00N 44°19' E 008°30'0 0.0
2019-Oct-14 07:30N 44°19' E 008°30'0 0.0
2019-Oct-14 07:00N 44°19' E 008°30'0 0.0
2019-Oct-14 06:30N 44°19' E 008°30'0 0.2
2019-Oct-14 06:00N 44°19' E 008°30'3 5.5
2019-Oct-14 05:31N 44°17' E 008°33'815.2
2019-Oct-14 05:00N 44°10' E 008°32'917.8
2019-Oct-14 04:31N 44°02' E 008°24'917.0
2019-Oct-14 04:01N 43°55' E 008°18'714.9
2019-Oct-14 03:31N 43°49' E 008°12'714.8
2019-Oct-14 03:00N 43°43' E 008°06'714.9
2019-Oct-14 02:30N 43°37' E 007°60'815.1
2019-Oct-14 02:00N 43°33' E 007°51'815.3
2019-Oct-14 01:31N 43°29' E 007°42'815.4
2019-Oct-14 01:00N 43°25' E 007°33'815.5
2019-Oct-14 00:31N 43°21' E 007°24'815.2
2019-Oct-14 00:00N 43°17' E 007°15'715.0
2019-Oct-13 23:30N 43°13' E 007°07'714.8
2019-Oct-13 23:00N 43°09' E 006°58'714.5
2019-Oct-13 22:30N 43°05' E 006°49'814.1
2019-Oct-13 21:57N 43°01' E 006°40'612.1
2019-Oct-13 21:28N 42°58' E 006°33'84 4.4
2019-Oct-13 02:28N 42°49' E 004°39'9915.2
2019-Oct-12 20:00N 41°39' E 003°06'1115.6
2019-Oct-12 19:16N 41°33' E 002°53'415.7
2019-Oct-12 19:00N 41°31' E 002°48'816.1
2019-Oct-12 18:30N 41°26' E 002°39'816.6
2019-Oct-12 18:00N 41°22' E 002°29'816.4
2019-Oct-12 17:30N 41°18' E 002°20'714.4
2019-Oct-12 17:00N 41°14' E 002°12'611.5
2019-Oct-12 16:31N 41°20' E 002°10'1 2.1
2019-Oct-12 15:59N 41°21' E 002°10'0 0.0
2019-Oct-12 15:28N 41°21' E 002°10'0 0.0
2019-Oct-12 14:50N 41°21' E 002°10'0 0.0
2019-Oct-12 14:29N 41°21' E 002°10'0 0.0
2019-Oct-12 13:57N 41°21' E 002°10'0 0.0
2019-Oct-12 13:21N 41°21' E 002°10'0 0.0
2019-Oct-12 13:00N 41°21' E 002°10'0 0.0
2019-Oct-12 12:24N 41°21' E 002°10'0 0.0
2019-Oct-12 12:00N 41°21' E 002°10'0 0.0
2019-Oct-12 11:30N 41°21' E 002°10'0 0.0
2019-Oct-12 11:00N 41°21' E 002°10'0 0.0
2019-Oct-12 10:30N 41°21' E 002°10'0 0.0
2019-Oct-12 10:00N 41°21' E 002°10'0 0.0
2019-Oct-12 09:30N 41°21' E 002°10'0 0.0
2019-Oct-12 09:00N 41°21' E 002°10'0 0.2
2019-Oct-12 08:44N 41°21' E 002°10'0 0.2
2019-Oct-12 08:30N 41°21' E 002°10'0 0.8
2019-Oct-12 08:27N 41°21' E 002°10'0 0.1
2019-Oct-12 08:00N 41°21' E 002°10'0 0.0
2019-Oct-12 07:30N 41°21' E 002°10'0 0.0
2019-Oct-12 07:00N 41°21' E 002°10'0 0.0
2019-Oct-12 06:30N 41°21' E 002°10'0 0.0
2019-Oct-12 06:00N 41°21' E 002°10'0 0.3
2019-Oct-12 05:30N 41°21' E 002°10'2 4.2
2019-Oct-12 05:00N 41°19' E 002°10'510.8
2019-Oct-12 04:30N 41°14' E 002°13'612.3
2019-Oct-12 04:00N 41°08' E 002°15'612.0
2019-Oct-12 03:30N 41°03' E 002°18'611.7
2019-Oct-12 03:00N 41°02' E 002°26'612.2
2019-Oct-12 02:30N 41°01' E 002°34'612.3
2019-Oct-12 02:00N 41°01' E 002°42'712.3
2019-Oct-12 01:24N 41°02' E 002°52'511.9
2019-Oct-12 01:00N 41°03' E 002°58'711.5
2019-Oct-12 00:25N 41°04' E 003°07'511.5
2019-Oct-11 23:58N 41°05' E 003°14'106 9.2
2019-Oct-11 12:23N 42°43' E 004°08'410.6
2019-Oct-11 12:00N 42°46' E 004°11'711.4
2019-Oct-11 11:25N 42°50' E 004°19'1210.8
2019-Oct-11 10:21N 42°53' E 004°34'8511.3
2019-Oct-11 02:50N 42°42' E 006°30'510.3
2019-Oct-11 02:22N 42°43' E 006°36'411.2
2019-Oct-11 01:59N 42°46' E 006°40'1011.3
2019-Oct-11 01:07N 42°53' E 006°50'211.5
2019-Oct-11 00:54N 42°55' E 006°52'511.6
2019-Oct-11 00:29N 42°58' E 006°57'611.6
2019-Oct-11 00:00N 43°02' E 007°03'611.5
2019-Oct-10 23:30N 43°05' E 007°09'611.5
2019-Oct-10 23:00N 43°09' E 007°14'611.6
2019-Oct-10 22:30N 43°13' E 007°20'611.9
2019-Oct-10 22:00N 43°17' E 007°26'612.0
2019-Oct-10 21:30N 43°21' E 007°32'612.1
2019-Oct-10 21:00N 43°25' E 007°39'612.5
2019-Oct-10 20:30N 43°30' E 007°45'612.7
2019-Oct-10 20:00N 43°34' E 007°51'612.9
2019-Oct-10 19:30N 43°38' E 007°58'612.5
2019-Oct-10 19:00N 43°43' E 008°03'612.4
2019-Oct-10 18:30N 43°48' E 008°09'612.6
2019-Oct-10 18:00N 43°53' E 008°15'612.3
2019-Oct-10 17:30N 43°58' E 008°19'612.1
2019-Oct-10 17:00N 44°03' E 008°24'612.3
2019-Oct-10 16:30N 44°08' E 008°28'612.1
2019-Oct-10 16:00N 44°13' E 008°33'611.1
2019-Oct-10 15:30N 44°19' E 008°31'1 2.0
2019-Oct-10 14:58N 44°19' E 008°29'0 0.0
2019-Oct-10 14:25N 44°19' E 008°29'0 0.0
2019-Oct-10 13:55N 44°19' E 008°29'0 0.0
2019-Oct-10 13:28N 44°19' E 008°29'0 0.0
2019-Oct-10 12:58N 44°19' E 008°29'0 0.0
2019-Oct-10 12:28N 44°19' E 008°29'0 0.0
2019-Oct-10 11:58N 44°19' E 008°29'0 0.0
2019-Oct-10 11:28N 44°19' E 008°29'0 0.0
2019-Oct-10 10:58N 44°19' E 008°29'0 0.0
2019-Oct-10 10:28N 44°19' E 008°29'0 0.0
2019-Oct-10 09:58N 44°19' E 008°29'0 0.0
2019-Oct-10 09:28N 44°19' E 008°29'0 0.0
2019-Oct-10 08:58N 44°19' E 008°29'0 0.0
2019-Oct-10 08:28N 44°19' E 008°29'0 0.0
2019-Oct-10 07:58N 44°19' E 008°29'0 0.0
2019-Oct-10 07:28N 44°19' E 008°29'0 0.0
2019-Oct-10 06:58N 44°19' E 008°29'0 0.4
2019-Oct-10 06:30N 44°19' E 008°29'2 4.7
2019-Oct-10 06:00N 44°18' E 008°32'611.7
2019-Oct-10 05:30N 44°12' E 008°34'713.1
2019-Oct-10 05:00N 44°06' E 008°30'713.3
2019-Oct-10 04:30N 44°00' E 008°25'713.5
2019-Oct-10 04:00N 43°55' E 008°20'713.3
2019-Oct-10 03:30N 43°51' E 008°13'713.3
2019-Oct-10 03:00N 43°45' E 008°08'713.1
2019-Oct-10 02:30N 43°40' E 008°02'612.8
2019-Oct-10 02:00N 43°36' E 007°56'612.9
2019-Oct-10 01:30N 43°32' E 007°49'612.8
2019-Oct-10 01:00N 43°28' E 007°41'713.3
2019-Oct-10 00:30N 43°25' E 007°33'713.6
2019-Oct-10 00:00N 43°21' E 007°25'713.3
2019-Oct-09 23:30N 43°18' E 007°18'713.3
2019-Oct-09 23:00N 43°14' E 007°10'713.1
2019-Oct-09 22:30N 43°11' E 007°02'713.2
2019-Oct-09 22:00N 43°07' E 006°55'713.5
2019-Oct-09 21:30N 43°04' E 006°47'713.8
2019-Oct-09 20:59N 43°00' E 006°38'86 4.8
2019-Oct-09 02:59N 42°50' E 004°41'1215.8
2019-Oct-09 02:13N 42°41' E 004°30'9015.5
2019-Oct-08 20:24N 41°38' E 003°04'616.2
2019-Oct-08 20:00N 41°34' E 002°57'816.3
2019-Oct-08 19:30N 41°30' E 002°47'816.5
2019-Oct-08 19:00N 41°26' E 002°38'816.7
2019-Oct-08 18:30N 41°22' E 002°28'816.4
2019-Oct-08 18:00N 41°18' E 002°19'612.5
2019-Oct-08 17:31N 41°17' E 002°11'4 7.8
2019-Oct-08 17:00N 41°21' E 002°10'0 0.0
2019-Oct-08 16:29N 41°21' E 002°10'0 0.0
2019-Oct-08 15:59N 41°21' E 002°10'0 0.0
2019-Oct-08 15:29N 41°21' E 002°10'0 0.0
2019-Oct-08 14:59N 41°21' E 002°10'0 0.0
2019-Oct-08 14:29N 41°21' E 002°10'0 0.0
2019-Oct-08 13:59N 41°21' E 002°10'0 0.0
2019-Oct-08 13:29N 41°21' E 002°10'0 0.0
2019-Oct-08 12:59N 41°21' E 002°10'0 0.0
2019-Oct-08 12:29N 41°21' E 002°10'0 0.0
2019-Oct-08 11:59N 41°21' E 002°10'0 0.0
2019-Oct-08 11:29N 41°21' E 002°10'0 0.0
2019-Oct-08 10:59N 41°21' E 002°10'0 0.6
2019-Oct-08 10:30N 41°21' E 002°10'3 5.4
2019-Oct-08 10:00N 41°18' E 002°11'510.3
2019-Oct-08 09:30N 41°16' E 002°17'612.6
2019-Oct-08 09:01N 41°17' E 002°25'816.5
2019-Oct-08 08:30N 41°18' E 002°36'918.1
2019-Oct-08 08:00N 41°22' E 002°47'918.3
2019-Oct-08 07:30N 41°26' E 002°58'918.3
2019-Oct-08 07:00N 41°30' E 003°09'918.4
2019-Oct-08 06:30N 41°34' E 003°20'16218.5
2019-Oct-07 21:44N 42°44' E 006°37'419.0
2019-Oct-07 21:30N 42°47' E 006°42'1019.1
2019-Oct-07 21:00N 42°53' E 006°52'919.2
2019-Oct-07 20:30N 42°60' E 007°01'1019.2
2019-Oct-07 20:00N 43°06' E 007°12'1019.1
2019-Oct-07 19:30N 43°12' E 007°21'1019.1
2019-Oct-07 19:00N 43°18' E 007°31'918.8
2019-Oct-07 18:30N 43°24' E 007°41'918.7
2019-Oct-07 18:00N 43°30' E 007°51'918.8
2019-Oct-07 17:30N 43°37' E 008°01'918.9
2019-Oct-07 17:00N 43°44' E 008°09'918.8
2019-Oct-07 16:30N 43°52' E 008°15'1019.4
2019-Oct-07 16:00N 44°01' E 008°21'1019.3
2019-Oct-07 15:30N 44°09' E 008°28'917.0
2019-Oct-07 15:00N 44°17' E 008°31'2 3.3
2019-Oct-07 14:28N 44°19' E 008°30'0 0.0
2019-Oct-07 13:58N 44°19' E 008°30'0 0.0
2019-Oct-07 13:28N 44°19' E 008°30'0 0.0
2019-Oct-07 12:55N 44°19' E 008°30'0 0.0
2019-Oct-07 12:28N 44°19' E 008°30'0 0.0
2019-Oct-07 11:58N 44°19' E 008°30'0 0.0
2019-Oct-07 11:28N 44°19' E 008°30'0 0.0
2019-Oct-07 10:58N 44°19' E 008°30'0 0.0
2019-Oct-07 10:28N 44°19' E 008°30'0 0.0
2019-Oct-07 10:00N 44°19' E 008°30'0 0.0
2019-Oct-07 09:30N 44°19' E 008°30'0 0.0
2019-Oct-07 09:00N 44°19' E 008°30'0 0.0
2019-Oct-07 08:30N 44°19' E 008°30'0 0.0
2019-Oct-07 08:01N 44°19' E 008°30'0 0.0
2019-Oct-07 07:31N 44°19' E 008°30'0 0.0
2019-Oct-07 07:01N 44°19' E 008°30'0 0.0
2019-Oct-07 06:30N 44°19' E 008°30'1 1.7
2019-Oct-07 06:01N 44°19' E 008°30'4 7.2
2019-Oct-07 05:31N 44°16' E 008°33'612.7
2019-Oct-07 05:00N 44°10' E 008°32'611.6
2019-Oct-07 04:31N 44°05' E 008°27'510.9
2019-Oct-07 04:01N 44°01' E 008°23'510.7
2019-Oct-07 03:30N 43°56' E 008°19'611.7
2019-Oct-07 03:00N 43°51' E 008°14'1211.8
2019-Oct-07 02:00N 43°42' E 008°04'611.5
2019-Oct-07 01:31N 43°37' E 007°59'612.0
2019-Oct-07 01:01N 43°34' E 007°53'612.1
2019-Oct-07 00:30N 43°30' E 007°46'611.8
2019-Oct-07 00:01N 43°27' E 007°39'611.7
2019-Oct-06 23:30N 43°24' E 007°32'611.8
2019-Oct-06 23:01N 43°21' E 007°25'713.0
2019-Oct-06 22:30N 43°18' E 007°18'713.5
2019-Oct-06 22:00N 43°14' E 007°10'815.9
2019-Oct-06 21:31N 43°10' E 007°00'815.7
2019-Oct-06 21:00N 43°06' E 006°51'815.5
2019-Oct-06 20:31N 43°02' E 006°42'815.2
2019-Oct-06 20:00N 42°58' E 006°33'  

Dump ship's entire track history